sensor_id;sensor_type;location;lat;lon;timestamp;P1;durP1;ratioP1;P2;durP2;ratioP2
23222;SDS011;11780;13.904;100.620;2022-10-16T00:09:53;13.75;;;11.75;;
23222;SDS011;11780;13.904;100.620;2022-10-16T00:12:24;16.42;;;12.57;;
23222;SDS011;11780;13.904;100.620;2022-10-16T00:14:55;15.73;;;12.55;;
23222;SDS011;11780;13.904;100.620;2022-10-16T00:17:26;13.48;;;11.85;;
23222;SDS011;11780;13.904;100.620;2022-10-16T00:19:57;14.23;;;11.87;;
23222;SDS011;11780;13.904;100.620;2022-10-16T00:22:28;15.93;;;12.50;;
23222;SDS011;11780;13.904;100.620;2022-10-16T00:27:30;14.13;;;11.90;;
23222;SDS011;11780;13.904;100.620;2022-10-16T00:30:01;13.45;;;11.50;;
23222;SDS011;11780;13.904;100.620;2022-10-16T00:32:32;15.00;;;11.88;;
23222;SDS011;11780;13.904;100.620;2022-10-16T00:35:03;13.73;;;12.20;;
23222;SDS011;11780;13.904;100.620;2022-10-16T00:37:35;15.80;;;12.05;;
23222;SDS011;11780;13.904;100.620;2022-10-16T00:40:05;22.03;;;12.17;;
23222;SDS011;11780;13.904;100.620;2022-10-16T00:42:37;16.05;;;12.13;;
23222;SDS011;11780;13.904;100.620;2022-10-16T00:45:08;15.70;;;12.68;;
23222;SDS011;11780;13.904;100.620;2022-10-16T00:50:22;15.40;;;12.35;;
23222;SDS011;11780;13.904;100.620;2022-10-16T00:52:54;13.52;;;12.13;;
23222;SDS011;11780;13.904;100.620;2022-10-16T00:55:26;14.73;;;12.70;;
23222;SDS011;11780;13.904;100.620;2022-10-16T00:58:02;16.85;;;13.80;;
23222;SDS011;11780;13.904;100.620;2022-10-16T01:00:33;17.17;;;12.83;;
23222;SDS011;11780;13.904;100.620;2022-10-16T01:03:21;15.97;;;13.83;;
23222;SDS011;11780;13.904;100.620;2022-10-16T01:09:17;15.98;;;13.60;;
23222;SDS011;11780;13.904;100.620;2022-10-16T01:15:01;14.20;;;12.73;;
23222;SDS011;11780;13.904;100.620;2022-10-16T01:17:37;16.08;;;13.50;;
23222;SDS011;11780;13.904;100.620;2022-10-16T01:20:14;19.90;;;13.90;;
23222;SDS011;11780;13.904;100.620;2022-10-16T01:23:03;18.38;;;14.07;;
23222;SDS011;11780;13.904;100.620;2022-10-16T01:28:26;15.48;;;13.88;;
23222;SDS011;11780;13.904;100.620;2022-10-16T01:31:02;16.85;;;13.90;;
23222;SDS011;11780;13.904;100.620;2022-10-16T01:33:42;16.13;;;13.98;;
23222;SDS011;11780;13.904;100.620;2022-10-16T01:38:51;17.13;;;14.27;;
23222;SDS011;11780;13.904;100.620;2022-10-16T01:41:26;16.38;;;14.02;;
23222;SDS011;11780;13.904;100.620;2022-10-16T01:46:50;21.00;;;15.15;;
23222;SDS011;11780;13.904;100.620;2022-10-16T01:49:23;21.50;;;16.85;;
23222;SDS011;11780;13.904;100.620;2022-10-16T01:51:59;18.88;;;15.32;;
23222;SDS011;11780;13.904;100.620;2022-10-16T01:54:33;15.65;;;14.10;;
23222;SDS011;11780;13.904;100.620;2022-10-16T01:57:08;16.85;;;14.20;;
23222;SDS011;11780;13.904;100.620;2022-10-16T01:59:46;16.00;;;14.23;;
23222;SDS011;11780;13.904;100.620;2022-10-16T02:02:19;17.90;;;14.07;;
23222;SDS011;11780;13.904;100.620;2022-10-16T02:04:55;16.80;;;14.38;;
23222;SDS011;11780;13.904;100.620;2022-10-16T02:07:39;24.92;;;15.57;;
23222;SDS011;11780;13.904;100.620;2022-10-16T02:10:13;22.30;;;16.13;;
23222;SDS011;11780;13.904;100.620;2022-10-16T02:12:46;18.08;;;14.82;;
23222;SDS011;11780;13.904;100.620;2022-10-16T02:17:57;19.40;;;15.07;;
23222;SDS011;11780;13.904;100.620;2022-10-16T02:20:28;17.03;;;14.60;;
23222;SDS011;11780;13.904;100.620;2022-10-16T02:23:07;17.98;;;14.15;;
23222;SDS011;11780;13.904;100.620;2022-10-16T02:25:46;19.77;;;15.55;;
23222;SDS011;11780;13.904;100.620;2022-10-16T02:28:22;16.55;;;14.45;;
23222;SDS011;11780;13.904;100.620;2022-10-16T02:31:02;19.42;;;15.35;;
23222;SDS011;11780;13.904;100.620;2022-10-16T02:33:35;15.77;;;14.27;;
23222;SDS011;11780;13.904;100.620;2022-10-16T02:36:09;19.33;;;14.65;;
23222;SDS011;11780;13.904;100.620;2022-10-16T02:38:41;17.98;;;14.13;;
23222;SDS011;11780;13.904;100.620;2022-10-16T02:41:12;19.17;;;14.65;;
23222;SDS011;11780;13.904;100.620;2022-10-16T02:43:44;17.00;;;14.75;;
23222;SDS011;11780;13.904;100.620;2022-10-16T02:46:15;17.30;;;14.43;;
23222;SDS011;11780;13.904;100.620;2022-10-16T02:48:47;16.77;;;14.00;;
23222;SDS011;11780;13.904;100.620;2022-10-16T02:51:18;18.75;;;13.85;;
23222;SDS011;11780;13.904;100.620;2022-10-16T02:53:49;16.90;;;15.10;;
23222;SDS011;11780;13.904;100.620;2022-10-16T02:56:20;17.13;;;14.57;;
23222;SDS011;11780;13.904;100.620;2022-10-16T02:58:51;18.27;;;14.15;;
23222;SDS011;11780;13.904;100.620;2022-10-16T03:01:22;16.43;;;14.60;;
23222;SDS011;11780;13.904;100.620;2022-10-16T03:03:55;19.77;;;15.00;;
23222;SDS011;11780;13.904;100.620;2022-10-16T03:06:26;15.90;;;14.30;;
23222;SDS011;11780;13.904;100.620;2022-10-16T03:08:57;18.80;;;14.13;;
23222;SDS011;11780;13.904;100.620;2022-10-16T03:11:28;15.60;;;14.00;;
23222;SDS011;11780;13.904;100.620;2022-10-16T03:13:58;17.52;;;14.35;;
23222;SDS011;11780;13.904;100.620;2022-10-16T03:16:29;18.48;;;14.25;;
23222;SDS011;11780;13.904;100.620;2022-10-16T03:19:00;17.67;;;13.80;;
23222;SDS011;11780;13.904;100.620;2022-10-16T03:21:31;26.92;;;22.58;;
23222;SDS011;11780;13.904;100.620;2022-10-16T03:24:02;24.77;;;19.02;;
23222;SDS011;11780;13.904;100.620;2022-10-16T03:26:33;20.58;;;16.48;;
23222;SDS011;11780;13.904;100.620;2022-10-16T03:29:04;19.40;;;16.23;;
23222;SDS011;11780;13.904;100.620;2022-10-16T03:31:35;18.48;;;14.73;;
23222;SDS011;11780;13.904;100.620;2022-10-16T03:34:05;16.27;;;14.40;;
23222;SDS011;11780;13.904;100.620;2022-10-16T03:36:37;17.08;;;15.20;;
23222;SDS011;11780;13.904;100.620;2022-10-16T03:39:08;16.85;;;14.38;;
23222;SDS011;11780;13.904;100.620;2022-10-16T03:41:39;15.40;;;13.70;;
23222;SDS011;11780;13.904;100.620;2022-10-16T03:44:10;15.65;;;14.05;;
23222;SDS011;11780;13.904;100.620;2022-10-16T03:46:41;16.35;;;13.20;;
23222;SDS011;11780;13.904;100.620;2022-10-16T03:49:12;21.98;;;13.55;;
23222;SDS011;11780;13.904;100.620;2022-10-16T03:51:42;16.63;;;13.30;;
23222;SDS011;11780;13.904;100.620;2022-10-16T03:54:13;11.50;;;10.32;;
23222;SDS011;11780;13.904;100.620;2022-10-16T03:56:44;10.57;;;9.40;;
23222;SDS011;11780;13.904;100.620;2022-10-16T03:59:15;10.20;;;9.00;;
23222;SDS011;11780;13.904;100.620;2022-10-16T04:01:46;9.85;;;8.45;;
23222;SDS011;11780;13.904;100.620;2022-10-16T04:04:17;10.18;;;9.13;;
23222;SDS011;11780;13.904;100.620;2022-10-16T04:09:19;11.70;;;9.88;;
23222;SDS011;11780;13.904;100.620;2022-10-16T04:11:49;12.10;;;10.90;;
23222;SDS011;11780;13.904;100.620;2022-10-16T04:14:20;11.70;;;9.83;;
23222;SDS011;11780;13.904;100.620;2022-10-16T04:16:51;12.03;;;10.63;;
23222;SDS011;11780;13.904;100.620;2022-10-16T04:19:21;11.73;;;9.83;;
23222;SDS011;11780;13.904;100.620;2022-10-16T04:21:53;12.55;;;10.05;;
23222;SDS011;11780;13.904;100.620;2022-10-16T04:24:24;12.68;;;9.73;;
23222;SDS011;11780;13.904;100.620;2022-10-16T04:26:55;13.80;;;9.37;;
23222;SDS011;11780;13.904;100.620;2022-10-16T04:29:26;11.23;;;10.07;;
23222;SDS011;11780;13.904;100.620;2022-10-16T04:31:57;11.55;;;10.30;;
23222;SDS011;11780;13.904;100.620;2022-10-16T04:34:28;11.40;;;10.20;;
23222;SDS011;11780;13.904;100.620;2022-10-16T04:36:59;12.33;;;11.13;;
23222;SDS011;11780;13.904;100.620;2022-10-16T04:39:30;13.75;;;12.35;;
23222;SDS011;11780;13.904;100.620;2022-10-16T04:42:01;13.52;;;11.77;;
23222;SDS011;11780;13.904;100.620;2022-10-16T04:44:32;16.67;;;14.13;;
23222;SDS011;11780;13.904;100.620;2022-10-16T04:47:03;15.03;;;12.40;;
23222;SDS011;11780;13.904;100.620;2022-10-16T04:49:34;14.27;;;12.80;;
23222;SDS011;11780;13.904;100.620;2022-10-16T04:52:05;13.60;;;12.30;;
23222;SDS011;11780;13.904;100.620;2022-10-16T04:54:36;18.80;;;16.52;;
23222;SDS011;11780;13.904;100.620;2022-10-16T04:57:07;17.80;;;15.30;;
23222;SDS011;11780;13.904;100.620;2022-10-16T04:59:37;18.33;;;13.57;;
23222;SDS011;11780;13.904;100.620;2022-10-16T05:04:39;18.27;;;14.15;;
23222;SDS011;11780;13.904;100.620;2022-10-16T05:07:10;17.37;;;14.70;;
23222;SDS011;11780;13.904;100.620;2022-10-16T05:09:41;24.57;;;17.47;;
23222;SDS011;11780;13.904;100.620;2022-10-16T05:12:12;20.13;;;16.83;;
23222;SDS011;11780;13.904;100.620;2022-10-16T05:14:42;21.87;;;16.50;;
23222;SDS011;11780;13.904;100.620;2022-10-16T05:17:13;19.05;;;16.98;;
23222;SDS011;11780;13.904;100.620;2022-10-16T05:19:44;20.02;;;18.00;;
23222;SDS011;11780;13.904;100.620;2022-10-16T05:22:15;20.60;;;17.40;;
23222;SDS011;11780;13.904;100.620;2022-10-16T05:24:46;20.17;;;17.53;;
23222;SDS011;11780;13.904;100.620;2022-10-16T05:27:17;19.15;;;17.15;;
23222;SDS011;11780;13.904;100.620;2022-10-16T05:29:51;19.35;;;17.33;;
23222;SDS011;11780;13.904;100.620;2022-10-16T05:32:22;19.08;;;17.08;;
23222;SDS011;11780;13.904;100.620;2022-10-16T05:34:53;21.17;;;18.00;;
23222;SDS011;11780;13.904;100.620;2022-10-16T05:37:24;19.75;;;17.65;;
23222;SDS011;11780;13.904;100.620;2022-10-16T05:39:55;22.45;;;18.35;;
23222;SDS011;11780;13.904;100.620;2022-10-16T05:42:26;25.58;;;20.65;;
23222;SDS011;11780;13.904;100.620;2022-10-16T05:44:56;22.13;;;19.65;;
23222;SDS011;11780;13.904;100.620;2022-10-16T05:47:27;23.20;;;19.03;;
23222;SDS011;11780;13.904;100.620;2022-10-16T05:49:58;21.50;;;19.23;;
23222;SDS011;11780;13.904;100.620;2022-10-16T05:52:29;21.63;;;19.30;;
23222;SDS011;11780;13.904;100.620;2022-10-16T05:55:01;20.58;;;18.33;;
23222;SDS011;11780;13.904;100.620;2022-10-16T05:57:32;21.08;;;18.95;;
23222;SDS011;11780;13.904;100.620;2022-10-16T06:00:03;21.85;;;19.30;;
23222;SDS011;11780;13.904;100.620;2022-10-16T06:02:41;23.60;;;19.30;;
23222;SDS011;11780;13.904;100.620;2022-10-16T06:05:11;20.63;;;18.47;;
23222;SDS011;11780;13.904;100.620;2022-10-16T06:07:42;21.02;;;18.92;;
23222;SDS011;11780;13.904;100.620;2022-10-16T06:10:13;20.53;;;18.47;;
23222;SDS011;11780;13.904;100.620;2022-10-16T06:15:14;21.80;;;18.65;;
23222;SDS011;11780;13.904;100.620;2022-10-16T06:17:45;22.93;;;20.53;;
23222;SDS011;11780;13.904;100.620;2022-10-16T06:20:16;21.60;;;18.97;;
23222;SDS011;11780;13.904;100.620;2022-10-16T06:22:47;22.83;;;18.80;;
23222;SDS011;11780;13.904;100.620;2022-10-16T06:25:18;21.33;;;18.48;;
23222;SDS011;11780;13.904;100.620;2022-10-16T06:27:48;21.67;;;19.43;;
23222;SDS011;11780;13.904;100.620;2022-10-16T06:30:19;28.07;;;20.10;;
23222;SDS011;11780;13.904;100.620;2022-10-16T06:32:50;24.60;;;19.10;;
23222;SDS011;11780;13.904;100.620;2022-10-16T06:37:55;21.98;;;19.08;;
23222;SDS011;11780;13.904;100.620;2022-10-16T06:40:26;21.95;;;18.90;;
23222;SDS011;11780;13.904;100.620;2022-10-16T06:42:57;20.95;;;18.55;;
23222;SDS011;11780;13.904;100.620;2022-10-16T06:45:28;23.17;;;17.73;;
23222;SDS011;11780;13.904;100.620;2022-10-16T06:47:59;19.55;;;17.48;;
23222;SDS011;11780;13.904;100.620;2022-10-16T06:50:29;20.45;;;18.35;;
23222;SDS011;11780;13.904;100.620;2022-10-16T06:53:00;20.13;;;18.25;;
23222;SDS011;11780;13.904;100.620;2022-10-16T06:55:32;20.73;;;17.95;;
23222;SDS011;11780;13.904;100.620;2022-10-16T06:58:03;21.75;;;18.77;;
23222;SDS011;11780;13.904;100.620;2022-10-16T07:00:33;20.80;;;17.55;;
23222;SDS011;11780;13.904;100.620;2022-10-16T07:03:05;22.20;;;17.35;;
23222;SDS011;11780;13.904;100.620;2022-10-16T07:05:40;26.85;;;21.33;;
23222;SDS011;11780;13.904;100.620;2022-10-16T07:08:12;23.00;;;18.50;;
23222;SDS011;11780;13.904;100.620;2022-10-16T07:10:43;20.10;;;17.47;;
23222;SDS011;11780;13.904;100.620;2022-10-16T07:13:13;21.37;;;18.27;;
23222;SDS011;11780;13.904;100.620;2022-10-16T07:15:44;23.20;;;18.55;;
23222;SDS011;11780;13.904;100.620;2022-10-16T07:18:15;21.80;;;18.67;;
23222;SDS011;11780;13.904;100.620;2022-10-16T07:20:46;21.03;;;18.10;;
23222;SDS011;11780;13.904;100.620;2022-10-16T07:23:17;22.08;;;18.55;;
23222;SDS011;11780;13.904;100.620;2022-10-16T07:25:57;23.85;;;18.27;;
23222;SDS011;11780;13.904;100.620;2022-10-16T07:28:28;21.17;;;18.98;;
23222;SDS011;11780;13.904;100.620;2022-10-16T07:31:00;37.95;;;23.60;;
23222;SDS011;11780;13.904;100.620;2022-10-16T07:33:36;44.15;;;24.45;;
23222;SDS011;11780;13.904;100.620;2022-10-16T07:36:08;41.53;;;24.48;;
23222;SDS011;11780;13.904;100.620;2022-10-16T07:38:42;51.08;;;27.10;;
23222;SDS011;11780;13.904;100.620;2022-10-16T07:41:15;41.97;;;23.02;;
23222;SDS011;11780;13.904;100.620;2022-10-16T07:43:49;34.10;;;22.60;;
23222;SDS011;11780;13.904;100.620;2022-10-16T07:46:22;41.80;;;25.05;;
23222;SDS011;11780;13.904;100.620;2022-10-16T07:51:24;28.80;;;21.27;;
23222;SDS011;11780;13.904;100.620;2022-10-16T07:53:56;24.58;;;19.48;;
23222;SDS011;11780;13.904;100.620;2022-10-16T07:56:26;25.50;;;20.17;;
23222;SDS011;11780;13.904;100.620;2022-10-16T07:58:58;25.15;;;18.05;;
23222;SDS011;11780;13.904;100.620;2022-10-16T08:01:28;19.87;;;16.57;;
23222;SDS011;11780;13.904;100.620;2022-10-16T08:03:59;19.70;;;17.45;;
23222;SDS011;11780;13.904;100.620;2022-10-16T08:06:36;19.67;;;17.40;;
23222;SDS011;11780;13.904;100.620;2022-10-16T08:09:08;21.40;;;17.00;;
23222;SDS011;11780;13.904;100.620;2022-10-16T08:11:39;17.83;;;15.90;;
23222;SDS011;11780;13.904;100.620;2022-10-16T08:14:10;20.53;;;18.27;;
23222;SDS011;11780;13.904;100.620;2022-10-16T08:16:41;19.75;;;17.75;;
23222;SDS011;11780;13.904;100.620;2022-10-16T08:19:12;23.67;;;18.05;;
23222;SDS011;11780;13.904;100.620;2022-10-16T08:21:42;19.83;;;17.73;;
23222;SDS011;11780;13.904;100.620;2022-10-16T08:24:16;20.67;;;17.33;;
23222;SDS011;11780;13.904;100.620;2022-10-16T08:26:47;20.27;;;17.27;;
23222;SDS011;11780;13.904;100.620;2022-10-16T08:29:18;20.33;;;17.43;;
23222;SDS011;11780;13.904;100.620;2022-10-16T08:31:48;20.37;;;18.37;;
23222;SDS011;11780;13.904;100.620;2022-10-16T08:34:19;21.43;;;18.87;;
23222;SDS011;11780;13.904;100.620;2022-10-16T08:36:52;20.52;;;18.23;;
23222;SDS011;11780;13.904;100.620;2022-10-16T08:39:24;21.60;;;18.58;;
23222;SDS011;11780;13.904;100.620;2022-10-16T08:42:02;20.70;;;18.55;;
23222;SDS011;11780;13.904;100.620;2022-10-16T08:49:58;24.70;;;19.42;;
23222;SDS011;11780;13.904;100.620;2022-10-16T08:52:32;19.45;;;17.38;;
23222;SDS011;11780;13.904;100.620;2022-10-16T08:55:06;21.10;;;18.85;;
23222;SDS011;11780;13.904;100.620;2022-10-16T08:57:47;21.58;;;18.08;;
23222;SDS011;11780;13.904;100.620;2022-10-16T09:00:18;24.60;;;20.03;;
23222;SDS011;11780;13.904;100.620;2022-10-16T09:05:51;21.35;;;19.13;;
23222;SDS011;11780;13.904;100.620;2022-10-16T09:11:08;21.58;;;19.27;;
23222;SDS011;11780;13.904;100.620;2022-10-16T09:16:55;23.13;;;20.65;;
23222;SDS011;11780;13.904;100.620;2022-10-16T09:19:31;27.67;;;21.38;;
23222;SDS011;11780;13.904;100.620;2022-10-16T09:22:16;22.05;;;19.73;;
23222;SDS011;11780;13.904;100.620;2022-10-16T09:24:48;22.25;;;19.65;;
23222;SDS011;11780;13.904;100.620;2022-10-16T09:27:19;25.13;;;20.35;;
23222;SDS011;11780;13.904;100.620;2022-10-16T09:29:51;23.95;;;19.88;;
23222;SDS011;11780;13.904;100.620;2022-10-16T09:32:26;21.33;;;18.20;;
23222;SDS011;11780;13.904;100.620;2022-10-16T09:34:59;23.38;;;19.40;;
23222;SDS011;11780;13.904;100.620;2022-10-16T09:37:30;22.05;;;19.65;;
23222;SDS011;11780;13.904;100.620;2022-10-16T09:40:01;22.23;;;19.60;;
23222;SDS011;11780;13.904;100.620;2022-10-16T09:42:34;22.42;;;19.63;;
23222;SDS011;11780;13.904;100.620;2022-10-16T09:45:18;22.02;;;18.92;;
23222;SDS011;11780;13.904;100.620;2022-10-16T09:47:52;24.10;;;20.10;;
23222;SDS011;11780;13.904;100.620;2022-10-16T09:55:36;24.38;;;21.88;;
23222;SDS011;11780;13.904;100.620;2022-10-16T09:58:17;27.80;;;21.60;;
23222;SDS011;11780;13.904;100.620;2022-10-16T10:00:48;24.48;;;21.05;;
23222;SDS011;11780;13.904;100.620;2022-10-16T10:06:15;26.48;;;20.60;;
23222;SDS011;11780;13.904;100.620;2022-10-16T10:09:54;27.60;;;21.73;;
23222;SDS011;11780;13.904;100.620;2022-10-16T10:14:56;28.80;;;21.10;;
23222;SDS011;11780;13.904;100.620;2022-10-16T10:17:47;27.70;;;20.95;;
23222;SDS011;11780;13.904;100.620;2022-10-16T10:20:35;25.85;;;22.92;;
23222;SDS011;11780;13.904;100.620;2022-10-16T10:23:43;27.23;;;21.27;;
23222;SDS011;11780;13.904;100.620;2022-10-16T10:26:13;30.05;;;21.30;;
23222;SDS011;11780;13.904;100.620;2022-10-16T10:29:11;26.35;;;22.73;;
23222;SDS011;11780;13.904;100.620;2022-10-16T10:32:03;26.27;;;21.73;;
23222;SDS011;11780;13.904;100.620;2022-10-16T10:37:51;25.98;;;20.60;;
23222;SDS011;11780;13.904;100.620;2022-10-16T10:54:41;24.60;;;19.63;;
23222;SDS011;11780;13.904;100.620;2022-10-16T11:03:13;24.67;;;20.58;;
23222;SDS011;11780;13.904;100.620;2022-10-16T11:11:03;22.95;;;20.17;;
23222;SDS011;11780;13.904;100.620;2022-10-16T11:16:28;25.70;;;21.15;;
23222;SDS011;11780;13.904;100.620;2022-10-16T11:22:19;26.77;;;22.40;;
23222;SDS011;11780;13.904;100.620;2022-10-16T11:25:04;29.85;;;23.40;;
23222;SDS011;11780;13.904;100.620;2022-10-16T11:27:50;30.63;;;23.40;;
23222;SDS011;11780;13.904;100.620;2022-10-16T11:30:40;32.15;;;24.83;;
23222;SDS011;11780;13.904;100.620;2022-10-16T11:36:42;30.02;;;24.45;;
23222;SDS011;11780;13.904;100.620;2022-10-16T11:39:21;28.70;;;25.60;;
23222;SDS011;11780;13.904;100.620;2022-10-16T11:47:25;36.80;;;27.13;;
23222;SDS011;11780;13.904;100.620;2022-10-16T11:56:05;30.20;;;26.88;;
23222;SDS011;11780;13.904;100.620;2022-10-16T12:12:27;34.38;;;24.80;;
23222;SDS011;11780;13.904;100.620;2022-10-16T12:15:21;31.70;;;26.85;;
23222;SDS011;11780;13.904;100.620;2022-10-16T12:18:20;29.88;;;26.50;;
23222;SDS011;11780;13.904;100.620;2022-10-16T12:21:03;30.55;;;25.25;;
23222;SDS011;11780;13.904;100.620;2022-10-16T12:23:56;31.77;;;25.08;;
23222;SDS011;11780;13.904;100.620;2022-10-16T12:26:30;28.98;;;25.75;;
23222;SDS011;11780;13.904;100.620;2022-10-16T12:32:22;30.55;;;25.20;;
23222;SDS011;11780;13.904;100.620;2022-10-16T12:35:20;28.48;;;25.05;;
23222;SDS011;11780;13.904;100.620;2022-10-16T12:38:17;34.00;;;25.50;;
23222;SDS011;11780;13.904;100.620;2022-10-16T12:41:03;31.63;;;25.40;;
23222;SDS011;11780;13.904;100.620;2022-10-16T12:43:39;29.95;;;26.13;;
23222;SDS011;11780;13.904;100.620;2022-10-16T12:48:43;31.10;;;26.05;;
23222;SDS011;11780;13.904;100.620;2022-10-16T12:54:04;37.23;;;28.03;;
23222;SDS011;11780;13.904;100.620;2022-10-16T14:19:01;26.23;;;23.42;;
23222;SDS011;11780;13.904;100.620;2022-10-16T14:21:36;33.42;;;22.50;;
23222;SDS011;11780;13.904;100.620;2022-10-16T14:24:11;24.13;;;21.70;;
23222;SDS011;11780;13.904;100.620;2022-10-16T14:26:54;26.48;;;22.15;;
23222;SDS011;11780;13.904;100.620;2022-10-16T14:29:26;24.35;;;21.77;;
23222;SDS011;11780;13.904;100.620;2022-10-16T14:32:02;22.10;;;19.38;;
23222;SDS011;11780;13.904;100.620;2022-10-16T14:34:36;22.98;;;20.67;;
23222;SDS011;11780;13.904;100.620;2022-10-16T14:39:57;23.40;;;20.95;;
23222;SDS011;11780;13.904;100.620;2022-10-16T14:42:28;23.65;;;19.67;;
23222;SDS011;11780;13.904;100.620;2022-10-16T14:45:00;22.33;;;20.08;;
23222;SDS011;11780;13.904;100.620;2022-10-16T14:47:31;21.88;;;19.33;;
23222;SDS011;11780;13.904;100.620;2022-10-16T14:50:02;22.80;;;20.40;;
23222;SDS011;11780;13.904;100.620;2022-10-16T14:52:33;21.60;;;19.40;;
23222;SDS011;11780;13.904;100.620;2022-10-16T14:55:04;21.63;;;19.43;;
23222;SDS011;11780;13.904;100.620;2022-10-16T14:57:47;22.83;;;20.27;;
23222;SDS011;11780;13.904;100.620;2022-10-16T15:00:25;21.80;;;19.60;;
23222;SDS011;11780;13.904;100.620;2022-10-16T15:02:56;21.40;;;19.15;;
23222;SDS011;11780;13.904;100.620;2022-10-16T15:05:30;20.73;;;18.55;;
23222;SDS011;11780;13.904;100.620;2022-10-16T15:08:22;21.85;;;19.65;;
23222;SDS011;11780;13.904;100.620;2022-10-16T15:10:59;22.15;;;19.48;;
23222;SDS011;11780;13.904;100.620;2022-10-16T15:13:36;20.63;;;18.50;;
23222;SDS011;11780;13.904;100.620;2022-10-16T15:16:18;24.20;;;19.48;;
23222;SDS011;11780;13.904;100.620;2022-10-16T15:18:58;21.38;;;19.05;;
23222;SDS011;11780;13.904;100.620;2022-10-16T15:21:32;21.27;;;18.33;;
23222;SDS011;11780;13.904;100.620;2022-10-16T15:24:09;19.95;;;17.85;;
23222;SDS011;11780;13.904;100.620;2022-10-16T15:26:54;22.02;;;18.88;;
23222;SDS011;11780;13.904;100.620;2022-10-16T15:29:29;20.83;;;18.70;;
23222;SDS011;11780;13.904;100.620;2022-10-16T15:32:12;19.77;;;17.63;;
23222;SDS011;11780;13.904;100.620;2022-10-16T15:34:43;20.55;;;18.27;;
23222;SDS011;11780;13.904;100.620;2022-10-16T15:37:14;18.43;;;16.70;;
23222;SDS011;11780;13.904;100.620;2022-10-16T15:39:45;19.63;;;17.73;;
23222;SDS011;11780;13.904;100.620;2022-10-16T15:42:16;18.47;;;16.47;;
23222;SDS011;11780;13.904;100.620;2022-10-16T15:44:46;18.83;;;16.87;;
23222;SDS011;11780;13.904;100.620;2022-10-16T15:47:19;21.05;;;16.98;;
23222;SDS011;11780;13.904;100.620;2022-10-16T15:49:50;20.23;;;18.15;;
23222;SDS011;11780;13.904;100.620;2022-10-16T15:52:21;18.47;;;16.53;;
23222;SDS011;11780;13.904;100.620;2022-10-16T15:57:23;17.88;;;16.08;;
23222;SDS011;11780;13.904;100.620;2022-10-16T15:59:54;20.48;;;17.08;;
23222;SDS011;11780;13.904;100.620;2022-10-16T16:02:25;18.90;;;16.90;;
23222;SDS011;11780;13.904;100.620;2022-10-16T16:04:56;20.08;;;17.55;;
23222;SDS011;11780;13.904;100.620;2022-10-16T16:07:26;19.42;;;17.40;;
23222;SDS011;11780;13.904;100.620;2022-10-16T16:09:57;18.15;;;16.33;;
23222;SDS011;11780;13.904;100.620;2022-10-16T16:12:29;17.98;;;16.08;;
23222;SDS011;11780;13.904;100.620;2022-10-16T16:15:00;17.77;;;15.87;;
23222;SDS011;11780;13.904;100.620;2022-10-16T16:17:32;17.38;;;15.57;;
23222;SDS011;11780;13.904;100.620;2022-10-16T16:20:04;18.30;;;16.52;;
23222;SDS011;11780;13.904;100.620;2022-10-16T16:22:35;18.88;;;16.55;;
23222;SDS011;11780;13.904;100.620;2022-10-16T16:25:06;17.60;;;15.82;;
23222;SDS011;11780;13.904;100.620;2022-10-16T16:27:37;18.00;;;16.10;;
23222;SDS011;11780;13.904;100.620;2022-10-16T16:30:10;18.03;;;15.97;;
23222;SDS011;11780;13.904;100.620;2022-10-16T16:32:46;19.15;;;16.65;;
23222;SDS011;11780;13.904;100.620;2022-10-16T16:35:17;17.58;;;15.75;;
23222;SDS011;11780;13.904;100.620;2022-10-16T16:37:48;17.63;;;15.93;;
23222;SDS011;11780;13.904;100.620;2022-10-16T16:40:19;19.13;;;17.17;;
23222;SDS011;11780;13.904;100.620;2022-10-16T16:42:50;20.00;;;16.05;;
23222;SDS011;11780;13.904;100.620;2022-10-16T16:45:20;17.80;;;16.00;;
23222;SDS011;11780;13.904;100.620;2022-10-16T16:47:51;18.80;;;16.63;;
23222;SDS011;11780;13.904;100.620;2022-10-16T16:50:22;17.60;;;15.80;;
23222;SDS011;11780;13.904;100.620;2022-10-16T16:52:53;16.87;;;15.07;;
23222;SDS011;11780;13.904;100.620;2022-10-16T16:55:24;17.40;;;15.70;;
23222;SDS011;11780;13.904;100.620;2022-10-16T16:57:54;19.93;;;15.20;;
23222;SDS011;11780;13.904;100.620;2022-10-16T17:00:26;19.20;;;16.75;;
23222;SDS011;11780;13.904;100.620;2022-10-16T17:02:57;17.67;;;15.97;;
23222;SDS011;11780;13.904;100.620;2022-10-16T17:05:28;18.00;;;16.20;;
23222;SDS011;11780;13.904;100.620;2022-10-16T17:07:58;18.47;;;16.70;;
23222;SDS011;11780;13.904;100.620;2022-10-16T17:10:29;20.13;;;16.83;;
23222;SDS011;11780;13.904;100.620;2022-10-16T17:13:00;19.77;;;16.73;;
23222;SDS011;11780;13.904;100.620;2022-10-16T17:15:30;18.63;;;16.53;;
23222;SDS011;11780;13.904;100.620;2022-10-16T17:18:01;18.35;;;16.52;;
23222;SDS011;11780;13.904;100.620;2022-10-16T17:20:35;18.73;;;16.83;;
23222;SDS011;11780;13.904;100.620;2022-10-16T17:23:05;18.08;;;16.15;;
23222;SDS011;11780;13.904;100.620;2022-10-16T17:25:37;17.65;;;15.82;;
23222;SDS011;11780;13.904;100.620;2022-10-16T17:28:10;18.42;;;15.52;;
23222;SDS011;11780;13.904;100.620;2022-10-16T17:30:42;17.83;;;15.98;;
23222;SDS011;11780;13.904;100.620;2022-10-16T17:33:13;17.92;;;16.02;;
23222;SDS011;11780;13.904;100.620;2022-10-16T17:35:45;16.75;;;15.20;;
23222;SDS011;11780;13.904;100.620;2022-10-16T17:38:16;17.77;;;15.98;;
23222;SDS011;11780;13.904;100.620;2022-10-16T17:40:47;19.10;;;15.57;;
23222;SDS011;11780;13.904;100.620;2022-10-16T17:43:18;17.20;;;15.45;;
23222;SDS011;11780;13.904;100.620;2022-10-16T17:45:48;17.33;;;15.03;;
23222;SDS011;11780;13.904;100.620;2022-10-16T17:48:19;18.53;;;15.50;;
23222;SDS011;11780;13.904;100.620;2022-10-16T17:50:50;17.17;;;15.43;;
23222;SDS011;11780;13.904;100.620;2022-10-16T17:53:21;18.17;;;16.20;;
23222;SDS011;11780;13.904;100.620;2022-10-16T17:55:52;16.67;;;14.90;;
23222;SDS011;11780;13.904;100.620;2022-10-16T17:58:28;18.85;;;16.83;;
23222;SDS011;11780;13.904;100.620;2022-10-16T18:00:58;17.70;;;15.87;;
23222;SDS011;11780;13.904;100.620;2022-10-16T18:03:29;17.70;;;15.77;;
23222;SDS011;11780;13.904;100.620;2022-10-16T18:06:00;17.48;;;15.15;;
23222;SDS011;11780;13.904;100.620;2022-10-16T18:08:31;18.40;;;15.57;;
23222;SDS011;11780;13.904;100.620;2022-10-16T18:11:05;19.80;;;15.35;;
23222;SDS011;11780;13.904;100.620;2022-10-16T18:13:36;18.07;;;15.10;;
23222;SDS011;11780;13.904;100.620;2022-10-16T18:16:09;20.20;;;16.00;;
23222;SDS011;11780;13.904;100.620;2022-10-16T18:18:42;20.30;;;16.05;;
23222;SDS011;11780;13.904;100.620;2022-10-16T18:21:17;18.65;;;16.65;;